Time;durP1;ratioP1;P1;durP2;ratioP2;P2;SDS_P1;SDS_P2;PMS_P1;PMS_P2;Temp;Humidity;BMP_temperature;BMP_pressure;BME280_temperature;BME280_humidity;BME280_pressure;Samples;Min_cycle;Max_cycle;Signal;HPM_P1;HPM_P2
2023/06/01 00:00:55;;;;;;;13.27;5.60;;;;;;;-146.25;94.64;52112.72;2072089;28;38489;-63
2023/06/01 00:01:57;;;;;;;13.95;6.10;;;;;;;-146.25;94.82;52173.56;2072641;28;28918;-63
2023/06/01 00:03:01;;;;;;;11.20;5.22;;;;;;;-146.25;94.51;52169.50;2072583;28;32305;-63
2023/06/01 00:04:05;;;;;;;12.82;5.38;;;;;;;-146.25;94.61;52147.19;2072346;28;35948;-64
2023/06/01 00:05:08;;;;;;;20.52;5.40;;;;;;;-146.25;94.48;52122.88;2072924;28;20153;-64
2023/06/01 00:06:10;;;;;;;14.32;5.28;;;;;;;-146.25;94.52;52141.13;2072638;28;20050;-65
2023/06/01 00:07:12;;;;;;;15.55;5.05;;;;;;;-146.25;93.90;52173.56;2072720;28;37903;-64
2023/06/01 00:08:15;;;;;;;17.80;4.93;;;;;;;-146.25;93.44;52163.41;2072972;28;32434;-64
2023/06/01 00:09:17;;;;;;;13.07;4.32;;;;;;;-146.25;93.28;52120.84;2071244;28;34898;-63
2023/06/01 00:10:18;;;;;;;13.45;4.40;;;;;;;-146.25;93.60;52141.13;2072234;28;36760;-64
2023/06/01 00:11:23;;;;;;;14.85;4.65;;;;;;;-146.25;93.46;52163.41;2072349;28;20062;-63
2023/06/01 00:12:26;;;;;;;13.48;4.88;;;;;;;-146.25;93.41;52112.72;2072795;28;20042;-64
2023/06/01 00:13:28;;;;;;;10.13;4.22;;;;;;;-146.25;93.23;52153.28;2073067;28;34038;-64
2023/06/01 00:14:30;;;;;;;11.95;4.72;;;;;;;-146.25;93.13;52126.91;2073009;28;33798;-64
2023/06/01 00:15:31;;;;;;;12.40;4.35;;;;;;;-146.25;93.19;52157.34;2072061;28;39403;-63
2023/06/01 00:16:33;;;;;;;14.07;4.47;;;;;;;-146.25;92.84;52179.63;2073690;28;21065;-66
2023/06/01 00:17:35;;;;;;;17.17;4.63;;;;;;;-146.25;93.16;52157.34;2072493;28;37315;-63
2023/06/01 00:18:37;;;;;;;16.58;4.97;;;;;;;-146.25;93.03;52122.88;2063968;28;25081;-63
2023/06/01 00:19:39;;;;;;;12.15;4.05;;;;;;;-146.25;93.19;52153.28;2064243;28;35110;-63
2023/06/01 00:20:41;;;;;;;14.07;4.97;;;;;;;-146.25;93.08;52153.28;2072691;28;37895;-64
2023/06/01 00:21:43;;;;;;;12.65;4.82;;;;;;;-146.25;93.10;52151.25;2073500;28;20100;-63
2023/06/01 00:22:50;;;;;;;14.65;4.72;;;;;;;-146.25;93.11;52130.97;2073489;28;20045;-63
2023/06/01 00:23:52;;;;;;;12.13;5.15;;;;;;;-146.25;93.10;52157.34;2072523;28;33395;-64
2023/06/01 00:24:54;;;;;;;15.65;5.38;;;;;;;-146.25;93.29;52189.78;2073419;28;20054;-64
2023/06/01 00:25:56;;;;;;;13.13;4.65;;;;;;;-146.25;93.46;52122.88;2072279;28;36856;-64
2023/06/01 00:27:01;;;;;;;13.07;5.25;;;;;;;-146.25;93.68;52149.22;2073378;28;20073;-64
2023/06/01 00:28:03;;;;;;;16.23;5.50;;;;;;;-146.25;93.69;52124.91;2073305;28;20830;-64
2023/06/01 00:29:05;;;;;;;17.45;5.45;;;;;;;-146.25;93.70;52124.91;2072669;28;29481;-64
2023/06/01 00:30:07;;;;;;;21.60;5.45;;;;;;;-146.25;94.03;52151.25;2075075;28;25031;-64
2023/06/01 00:31:09;;;;;;;13.30;5.63;;;;;;;-146.25;94.60;52179.63;2088693;28;20695;-64
2023/06/01 00:32:11;;;;;;;15.02;5.45;;;;;;;-146.25;94.15;52133.00;2088929;28;20045;-64
2023/06/01 00:33:13;;;;;;;15.32;5.40;;;;;;;-146.25;94.34;52153.28;2080810;28;38455;-63
2023/06/01 00:34:16;;;;;;;16.77;5.47;;;;;;;-146.25;94.51;52124.91;2081199;28;20053;-64
2023/06/01 00:35:18;;;;;;;13.80;5.85;;;;;;;-146.25;94.66;52157.34;2081242;28;28223;-64
2023/06/01 00:36:20;;;;;;;15.07;5.70;;;;;;;-146.25;94.80;52135.03;2081539;28;20041;-64
2023/06/01 00:37:21;;;;;;;14.50;5.97;;;;;;;-146.25;95.23;52151.25;2081190;28;24131;-65
2023/06/01 00:38:23;;;;;;;16.50;6.05;;;;;;;-146.25;95.27;52159.34;2081095;28;27758;-64
2023/06/01 00:39:25;;;;;;;19.05;5.80;;;;;;;-146.25;95.46;52169.50;2080896;28;28641;-65
2023/06/01 00:40:27;;;;;;;17.27;6.82;;;;;;;-146.25;95.27;52141.13;2080637;28;28322;-65
2023/06/01 00:41:30;;;;;;;22.83;6.03;;;;;;;-146.25;95.69;52149.22;2081527;28;20050;-64
2023/06/01 00:42:32;;;;;;;14.02;5.82;;;;;;;-146.25;95.96;52153.28;2088370;28;23023;-64
2023/06/01 00:43:33;;;;;;;20.17;5.78;;;;;;;-146.25;95.73;52133.00;2088667;28;29089;-64
2023/06/01 00:44:37;;;;;;;17.48;6.10;;;;;;;-146.25;95.48;52112.72;2080288;28;36313;-64
2023/06/01 00:45:39;;;;;;;15.15;6.35;;;;;;;-146.25;95.95;52141.13;2080745;28;27477;-64
2023/06/01 00:46:41;;;;;;;14.45;5.88;;;;;;;-146.25;95.68;52139.09;2088287;28;22068;-64
2023/06/01 00:47:43;;;;;;;22.13;6.32;;;;;;;-146.25;94.93;52157.34;2080697;28;20056;-64
2023/06/01 00:48:46;;;;;;;15.48;6.22;;;;;;;-146.25;95.32;52159.34;2072758;28;20054;-64
2023/06/01 00:49:48;;;;;;;17.05;5.68;;;;;;;-146.25;95.34;52179.63;2089006;28;20858;-64
2023/06/01 00:50:51;;;;;;;16.08;6.20;;;;;;;-146.25;95.92;52151.25;2088507;28;20981;-64
2023/06/01 00:51:56;;;;;;;14.20;5.75;;;;;;;-146.25;96.18;52149.22;2081767;28;21004;-64
2023/06/01 00:53:00;;;;;;;14.43;5.57;;;;;;;-146.25;95.98;52161.38;2080409;28;20164;-64
2023/06/01 00:54:02;;;;;;;13.45;5.57;;;;;;;-146.25;96.19;52128.94;2071834;28;33155;-64
2023/06/01 00:55:06;;;;;;;16.45;6.03;;;;;;;-146.25;96.53;52165.44;2080497;28;20089;-64
2023/06/01 00:56:13;;;;;;;15.00;5.95;;;;;;;-146.25;96.38;52161.38;2081555;28;20101;-64
2023/06/01 00:57:16;;;;;;;14.50;4.93;;;;;;;-146.25;96.84;52157.34;2081072;28;20791;-63
2023/06/01 00:58:18;;;;;;;11.88;4.97;;;;;;;-146.25;96.78;52124.91;2081333;28;20073;-64
2023/06/01 00:59:22;;;;;;;13.60;5.13;;;;;;;-146.25;97.14;52161.38;2080585;28;27424;-63
2023/06/01 01:00:26;;;;;;;21.10;5.03;;;;;;;-146.25;97.55;52165.44;2080553;28;22404;-64
2023/06/01 01:01:31;;;;;;;14.48;5.35;;;;;;;-146.25;97.53;52153.28;2088184;28;20045;-64
2023/06/01 01:02:34;;;;;;;14.63;4.75;;;;;;;-146.25;97.83;52153.28;2088554;28;20081;-64
2023/06/01 01:03:38;;;;;;;14.13;5.00;;;;;;;-146.25;97.79;52169.50;2081357;28;20068;-64
2023/06/01 01:04:40;;;;;;;12.15;4.72;;;;;;;-146.25;97.52;52122.88;2080495;28;25826;-64
2023/06/01 01:05:44;;;;;;;8.45;4.93;;;;;;;-146.25;97.91;52153.28;2080523;28;28566;-64
2023/06/01 01:07:31;;;;;;;12.02;4.32;;;;;;;-146.25;98.01;52159.34;2080994;28;20037;-63
2023/06/01 01:08:50;;;;;;;10.98;4.53;;;;;;;-146.25;98.12;52151.25;2081506;28;20152;-64
2023/06/01 01:10:24;;;;;;;11.73;4.43;;;;;;;-146.25;97.85;52181.66;2080058;28;33167;-65
2023/06/01 01:11:30;;;;;;;15.00;5.10;;;;;;;-146.25;97.79;52195.84;2080283;28;23144;-64
2023/06/01 01:12:37;;;;;;;14.07;5.25;;;;;;;-146.25;98.53;52175.56;2080504;28;20050;-63
2023/06/01 01:13:58;;;;;;;16.10;5.15;;;;;;;-146.25;98.13;52165.44;2072787;28;20124;-65
2023/06/01 01:15:28;;;;;;;15.55;5.00;;;;;;;-146.25;98.45;52130.97;2067498;28;20043;-65
2023/06/01 01:16:46;;;;;;;11.27;4.80;;;;;;;-146.25;97.86;52151.25;2078096;28;28047;-64
2023/06/01 01:17:54;;;;;;;16.45;5.55;;;;;;;-146.25;97.94;52163.41;2080742;28;20057;-64
2023/06/01 01:19:42;;;;;;;14.90;5.47;;;;;;;-146.25;98.36;52137.06;2080539;28;29324;-65
2023/06/01 01:20:57;;;;;;;13.75;5.47;;;;;;;-146.25;98.06;52147.19;2053960;28;20056;-64
2023/06/01 01:22:26;;;;;;;15.15;5.50;;;;;;;-146.25;97.88;52181.66;2088813;28;21035;-64
2023/06/01 01:23:58;;;;;;;14.88;5.85;;;;;;;-146.25;98.50;52159.34;2082903;28;32574;-64
2023/06/01 01:26:12;;;;;;;13.32;5.53;;;;;;;-146.25;98.24;52157.34;2088852;28;20052;-64
2023/06/01 01:27:44;;;;;;;19.90;5.10;;;;;;;-146.25;98.12;52159.34;2044257;28;20231;-64
2023/06/01 01:29:08;;;;;;;13.07;4.57;;;;;;;-146.25;98.43;52165.44;2043399;28;21421;-64
2023/06/01 01:30:13;;;;;;;14.80;5.45;;;;;;;-146.25;98.58;52161.38;2047128;28;20047;-66
2023/06/01 01:31:22;;;;;;;13.70;5.05;;;;;;;-146.25;98.40;52143.13;2047915;28;20163;-63
2023/06/01 01:32:26;;;;;;;9.45;4.82;;;;;;;-146.25;98.02;52173.56;2061319;28;20057;-63
2023/06/01 01:33:29;;;;;;;14.95;5.18;;;;;;;-146.25;98.35;52137.06;2072426;28;20073;-64
2023/06/01 01:34:32;;;;;;;15.10;4.72;;;;;;;-146.25;99.01;52155.31;2055392;28;33549;-64
2023/06/01 01:35:34;;;;;;;11.25;4.78;;;;;;;-146.25;98.70;52153.28;2056338;28;31519;-64
2023/06/01 01:36:37;;;;;;;15.98;5.45;;;;;;;-146.25;99.09;52183.69;2072184;28;20050;-64
2023/06/01 01:37:55;;;;;;;14.35;5.13;;;;;;;-146.25;99.11;52167.47;2080144;28;28607;-64
2023/06/01 01:38:58;;;;;;;14.27;5.03;;;;;;;-146.25;99.61;52169.50;2072307;28;20133;-64
2023/06/01 01:40:00;;;;;;;14.90;5.40;;;;;;;-146.25;99.24;52183.69;2072092;28;21239;-64
2023/06/01 01:41:05;;;;;;;16.13;5.57;;;;;;;-146.25;99.37;52135.03;2072474;28;23445;-64
2023/06/01 01:42:07;;;;;;;13.80;5.40;;;;;;;-146.25;99.55;52161.38;2079785;28;34465;-64
2023/06/01 01:43:10;;;;;;;13.70;4.90;;;;;;;-146.25;99.82;52149.22;2080461;28;20093;-64
2023/06/01 01:44:14;;;;;;;13.50;5.32;;;;;;;-146.25;99.81;52175.56;2072967;28;20862;-63
2023/06/01 01:45:20;;;;;;;16.13;4.65;;;;;;;-146.25;100.00;52151.25;2071638;28;23991;-63
2023/06/01 01:46:25;;;;;;;15.40;5.25;;;;;;;-146.25;100.00;52157.34;2064837;28;20042;-62
2023/06/01 01:47:40;;;;;;;13.80;5.03;;;;;;;-146.25;100.00;52112.72;2072384;28;33361;-63
2023/06/01 01:49:02;;;;;;;12.38;5.40;;;;;;;-146.25;100.00;52135.03;2072537;28;20105;-63
2023/06/01 01:50:10;;;;;;;10.27;4.47;;;;;;;-146.25;100.00;52169.50;2072218;28;20042;-64
2023/06/01 01:51:22;;;;;;;13.50;5.00;;;;;;;-146.25;100.00;52161.38;2064592;28;20285;-63
2023/06/01 01:52:42;;;;;;;11.55;4.57;;;;;;;-146.25;100.00;52175.56;2072911;28;20092;-63
2023/06/01 01:53:45;;;;;;;14.00;5.32;;;;;;;-146.25;100.00;52193.81;2066240;28;24098;-63
2023/06/01 01:54:49;;;;;;;10.45;4.80;;;;;;;-146.25;100.00;52143.13;2055580;28;20043;-64
2023/06/01 01:55:53;;;;;;;13.00;4.70;;;;;;;-146.25;100.00;52169.50;2049102;28;21090;-63
2023/06/01 01:57:00;;;;;;;11.07;4.70;;;;;;;-146.25;100.00;52149.22;2057089;28;20809;-63
2023/06/01 01:58:03;;;;;;;11.90;3.85;;;;;;;-146.25;100.00;52185.72;2064984;28;20805;-63
2023/06/01 01:59:05;;;;;;;12.35;4.70;;;;;;;-146.25;100.00;52177.59;2072013;28;20046;-64
2023/06/01 02:00:08;;;;;;;13.45;4.25;;;;;;;-146.25;100.00;52137.06;2073836;28;20918;-63
2023/06/01 02:01:18;;;;;;;12.07;4.50;;;;;;;-146.25;100.00;52145.16;2072518;28;20878;-63
2023/06/01 02:02:20;;;;;;;13.63;4.30;;;;;;;-146.25;100.00;52165.44;2080113;28;20830;-63
2023/06/01 02:03:25;;;;;;;10.02;4.00;;;;;;;-146.25;100.00;52165.44;2070831;28;34277;-64
2023/06/01 02:04:27;;;;;;;9.15;4.07;;;;;;;-146.25;100.00;52171.53;2071542;28;25873;-63
2023/06/01 02:05:29;;;;;;;11.68;4.20;;;;;;;-146.25;100.00;52203.97;2071753;28;20157;-63
2023/06/01 02:06:33;;;;;;;10.00;4.50;;;;;;;-146.25;100.00;52137.06;2064208;28;20178;-64
2023/06/01 02:07:38;;;;;;;12.73;4.90;;;;;;;-146.25;100.00;52175.56;2072470;28;20084;-64
2023/06/01 02:08:40;;;;;;;12.48;4.22;;;;;;;-146.25;100.00;52181.66;2079808;28;20240;-64
2023/06/01 02:09:42;;;;;;;11.23;4.28;;;;;;;-146.25;100.00;52177.59;2072560;28;20031;-64
2023/06/01 02:10:45;;;;;;;11.80;4.50;;;;;;;-146.25;100.00;52167.47;2071984;28;20085;-64
2023/06/01 02:11:47;;;;;;;9.88;4.18;;;;;;;-146.25;100.00;52153.28;2062905;28;20043;-64
2023/06/01 02:12:53;;;;;;;13.60;4.45;;;;;;;-146.25;100.00;52189.78;2063958;28;20113;-64
2023/06/01 02:13:55;;;;;;;10.20;4.50;;;;;;;-146.25;100.00;52153.28;2071336;28;20161;-63
2023/06/01 02:14:56;;;;;;;9.57;4.53;;;;;;;-146.25;100.00;52157.34;2071671;28;20042;-63
2023/06/01 02:15:58;;;;;;;10.98;4.30;;;;;;;-146.25;100.00;52187.75;2071502;28;21021;-64
2023/06/01 02:17:01;;;;;;;11.15;4.10;;;;;;;-146.25;100.00;52110.69;2079907;28;27756;-63
2023/06/01 02:18:03;;;;;;;11.43;3.92;;;;;;;-146.25;100.00;52153.28;2071307;28;20042;-64
2023/06/01 02:19:10;;;;;;;8.93;4.10;;;;;;;-146.25;100.00;52159.34;2072273;28;20039;-64
2023/06/01 02:20:12;;;;;;;13.00;5.05;;;;;;;-146.25;100.00;52159.34;2071339;28;21008;-64
2023/06/01 02:21:15;;;;;;;13.25;4.35;;;;;;;-146.25;100.00;52139.09;2063676;28;20043;-63
2023/06/01 02:22:19;;;;;;;11.48;4.50;;;;;;;-146.25;100.00;52169.50;2071390;28;21124;-63
2023/06/01 02:23:23;;;;;;;13.35;4.65;;;;;;;-146.25;100.00;52159.34;2079159;28;34510;-63
2023/06/01 02:24:25;;;;;;;13.50;4.80;;;;;;;-146.25;100.00;52183.69;2070738;28;35389;-63
2023/06/01 02:25:27;;;;;;;10.98;4.40;;;;;;;-146.25;100.00;52189.78;2071251;28;28733;-63
2023/06/01 02:26:30;;;;;;;7.38;4.32;;;;;;;-146.25;100.00;52173.56;2071608;28;20224;-63
2023/06/01 02:27:32;;;;;;;10.98;4.15;;;;;;;-146.25;100.00;52137.06;2071277;28;35045;-63
2023/06/01 02:28:40;;;;;;;8.45;4.10;;;;;;;-146.25;100.00;52167.47;2071492;28;20046;-65
2023/06/01 02:29:42;;;;;;;10.98;4.93;;;;;;;-146.25;100.00;52149.22;2070948;28;34550;-63
2023/06/01 02:30:44;;;;;;;10.98;4.80;;;;;;;-146.25;100.00;52130.97;2078999;28;25529;-63
2023/06/01 02:31:46;;;;;;;11.93;4.80;;;;;;;-146.25;100.00;52165.44;2079770;28;34063;-63
2023/06/01 02:32:50;;;;;;;9.88;4.40;;;;;;;-146.25;100.00;52193.81;2079418;28;20049;-64
2023/06/01 02:33:52;;;;;;;10.48;4.60;;;;;;;-146.25;100.00;52161.38;2080229;28;20366;-64
2023/06/01 02:34:54;;;;;;;13.25;4.82;;;;;;;-146.25;100.00;52141.13;2081144;28;20092;-63
2023/06/01 02:35:55;;;;;;;15.73;4.88;;;;;;;-146.25;100.00;52179.63;2080951;28;20910;-63
2023/06/01 02:36:57;;;;;;;14.40;4.88;;;;;;;-146.25;100.00;52153.28;2079375;28;20153;-64
2023/06/01 02:38:04;;;;;;;10.48;4.57;;;;;;;-146.25;100.00;52153.28;2071977;28;20053;-64
2023/06/01 02:39:06;;;;;;;12.88;4.10;;;;;;;-146.25;100.00;52173.56;2079920;28;20147;-63
2023/06/01 02:40:11;;;;;;;12.10;4.53;;;;;;;-146.25;100.00;52133.00;2088239;28;20045;-63
2023/06/01 02:41:13;;;;;;;8.88;3.83;;;;;;;-146.25;100.00;52145.16;2079327;28;20045;-63
2023/06/01 02:42:18;;;;;;;9.20;3.67;;;;;;;-146.25;100.00;52151.25;2072243;28;20081;-63
2023/06/01 02:43:20;;;;;;;8.30;3.38;;;;;;;-146.25;100.00;52167.47;2071620;28;20169;-63
2023/06/01 02:44:22;;;;;;;10.38;4.13;;;;;;;-146.25;100.00;52189.78;2071368;28;24128;-64
2023/06/01 02:45:26;;;;;;;8.48;3.90;;;;;;;-146.25;100.00;52161.38;2071546;28;20054;-65
2023/06/01 02:46:28;;;;;;;8.65;4.03;;;;;;;-146.25;100.00;52183.69;2080330;28;20156;-64
2023/06/01 02:47:30;;;;;;;11.25;4.30;;;;;;;-146.25;100.00;52185.72;2079272;28;20084;-63
2023/06/01 02:48:32;;;;;;;10.40;4.25;;;;;;;-146.25;100.00;52191.81;2071673;28;20039;-62
2023/06/01 02:49:34;;;;;;;12.93;4.40;;;;;;;-146.25;100.00;52128.94;2071290;28;20144;-64
2023/06/01 02:50:36;;;;;;;9.73;4.40;;;;;;;-146.25;100.00;52206.00;2079606;28;20910;-62
2023/06/01 02:51:38;;;;;;;10.48;4.57;;;;;;;-146.25;100.00;52189.78;2079650;28;20042;-63
2023/06/01 02:52:53;;;;;;;11.40;4.10;;;;;;;-146.25;100.00;52157.34;2081771;28;20140;-63
2023/06/01 02:53:57;;;;;;;11.38;4.68;;;;;;;-146.25;100.00;52151.25;2071433;28;20046;-64
2023/06/01 02:54:59;;;;;;;9.63;4.25;;;;;;;-146.25;100.00;52169.50;2064622;28;20050;-63
2023/06/01 02:56:28;;;;;;;11.77;4.57;;;;;;;-146.25;100.00;52145.16;2078949;28;20938;-65
2023/06/01 02:57:52;;;;;;;10.98;4.20;;;;;;;-146.25;100.00;52206.00;2087725;28;20160;-64
2023/06/01 02:58:57;;;;;;;10.88;4.80;;;;;;;-146.25;100.00;52187.75;2079941;28;20046;-64
2023/06/01 03:00:04;;;;;;;14.48;4.78;;;;;;;-146.25;100.00;52153.28;2072557;28;20038;-63
2023/06/01 03:01:07;;;;;;;10.90;4.70;;;;;;;-146.25;100.00;52181.66;2071565;28;20051;-63
2023/06/01 03:02:09;;;;;;;13.85;4.75;;;;;;;-146.25;100.00;52141.13;2071620;28;20058;-63
2023/06/01 03:03:11;;;;;;;10.20;4.55;;;;;;;-146.25;100.00;52169.50;2071585;28;20038;-63
2023/06/01 03:04:14;;;;;;;8.85;4.55;;;;;;;-146.25;100.00;52177.59;2080090;28;20096;-64
2023/06/01 03:05:16;;;;;;;11.32;4.93;;;;;;;-146.25;100.00;52201.94;2087637;28;20941;-65
2023/06/01 03:06:31;;;;;;;14.45;5.05;;;;;;;-146.25;100.00;52173.56;2079638;28;20054;-64
2023/06/01 03:07:51;;;;;;;12.35;5.10;;;;;;;-146.25;100.00;52151.25;2079379;28;20168;-63
2023/06/01 03:08:58;;;;;;;11.57;5.30;;;;;;;-146.25;100.00;52122.88;2079875;28;20082;-63
2023/06/01 03:10:23;;;;;;;11.07;4.90;;;;;;;-146.25;100.00;52143.13;2079561;28;20046;-63
2023/06/01 03:11:48;;;;;;;9.57;4.82;;;;;;;-146.25;100.00;52147.19;2073667;28;20053;-63
2023/06/01 03:12:50;;;;;;;15.43;5.65;;;;;;;-146.25;100.00;52161.38;2088104;28;20069;-63
2023/06/01 03:13:52;;;;;;;14.90;5.43;;;;;;;-146.25;100.00;52157.34;2088014;28;20054;-63
2023/06/01 03:14:53;;;;;;;17.98;5.78;;;;;;;-146.25;100.00;52171.53;2079793;28;20046;-63
2023/06/01 03:15:55;;;;;;;15.15;5.90;;;;;;;-146.25;100.00;52161.38;2079590;28;20873;-64
2023/06/01 03:16:57;;;;;;;12.93;5.60;;;;;;;-146.25;100.00;52139.09;2088310;28;20128;-63
2023/06/01 03:18:01;;;;;;;11.40;4.90;;;;;;;-146.25;100.00;52177.59;2079428;28;20061;-63
2023/06/01 03:19:03;;;;;;;12.07;5.30;;;;;;;-146.25;100.00;52185.72;2071784;28;21065;-63
2023/06/01 03:20:14;;;;;;;12.85;5.82;;;;;;;-146.25;100.00;52181.66;2071220;28;20042;-64
2023/06/01 03:21:16;;;;;;;10.48;5.03;;;;;;;-146.25;100.00;52189.78;2072612;28;20176;-63
2023/06/01 03:22:19;;;;;;;14.57;5.03;;;;;;;-146.25;100.00;52171.53;2071590;28;20039;-63
2023/06/01 03:23:22;;;;;;;9.60;3.78;;;;;;;-146.25;100.00;52163.41;2079653;28;20983;-64
2023/06/01 03:24:26;;;;;;;8.55;3.70;;;;;;;-146.25;100.00;52167.47;2071588;28;20046;-63
2023/06/01 03:25:28;;;;;;;6.28;3.78;;;;;;;-146.25;100.00;52120.84;2079593;28;20066;-63
2023/06/01 03:26:29;;;;;;;12.32;4.00;;;;;;;-146.25;100.00;52169.50;2071474;28;20046;-63
2023/06/01 03:27:31;;;;;;;11.25;3.63;;;;;;;-146.25;100.00;52155.31;2079880;28;20285;-63
2023/06/01 03:28:33;;;;;;;6.38;2.88;;;;;;;-146.25;100.00;52128.94;2087724;28;20055;-64
2023/06/01 03:29:35;;;;;;;8.73;3.13;;;;;;;-146.25;100.00;52181.66;2079734;28;21112;-64
2023/06/01 03:30:37;;;;;;;6.32;2.90;;;;;;;-146.25;100.00;52159.34;2078610;28;28723;-63
2023/06/01 03:31:39;;;;;;;7.97;3.17;;;;;;;-146.25;100.00;52165.44;2080562;28;22144;-66
2023/06/01 03:32:42;;;;;;;9.18;2.92;;;;;;;-146.25;100.00;52191.81;2079914;28;20128;-63
2023/06/01 03:33:50;;;;;;;10.57;3.05;;;;;;;-146.25;100.00;52181.66;2087994;28;20041;-63
2023/06/01 03:34:52;;;;;;;12.38;2.92;;;;;;;-146.25;100.00;52187.75;2087358;28;20042;-63
2023/06/01 03:35:54;;;;;;;9.43;3.58;;;;;;;-146.25;100.00;52173.56;2071660;28;20035;-63
2023/06/01 03:36:58;;;;;;;6.88;3.40;;;;;;;-146.25;100.00;52151.25;2079708;28;20132;-63
2023/06/01 03:38:02;;;;;;;9.07;3.22;;;;;;;-146.25;100.00;52157.34;2079886;28;26586;-64
2023/06/01 03:39:08;;;;;;;7.22;3.22;;;;;;;-146.25;100.00;52177.59;2079498;28;20049;-63
2023/06/01 03:40:11;;;;;;;8.82;3.28;;;;;;;-146.25;100.00;52163.41;2072778;28;20039;-63
2023/06/01 03:41:14;;;;;;;10.93;3.30;;;;;;;-146.25;100.00;52143.13;2079463;28;20046;-63
2023/06/01 03:42:19;;;;;;;8.55;3.40;;;;;;;-146.25;100.00;52149.22;2087772;28;20115;-63
2023/06/01 03:43:22;;;;;;;8.23;3.53;;;;;;;-146.25;100.00;52181.66;2071762;28;20978;-63
2023/06/01 03:44:23;;;;;;;8.82;3.22;;;;;;;-146.25;100.00;52143.13;2079714;28;27521;-63
2023/06/01 03:45:25;;;;;;;9.50;3.25;;;;;;;-146.25;100.00;52169.50;2079849;28;27277;-64
2023/06/01 03:46:27;;;;;;;13.45;3.47;;;;;;;-146.25;100.00;52167.47;2079016;28;20076;-63
2023/06/01 03:47:29;;;;;;;8.88;2.97;;;;;;;-146.25;100.00;52175.56;2078881;28;23467;-64
2023/06/01 03:48:31;;;;;;;9.50;3.30;;;;;;;-146.25;100.00;52173.56;2087882;28;20170;-64
2023/06/01 03:49:32;;;;;;;10.38;3.60;;;;;;;-146.25;100.00;52149.22;2078973;28;20050;-64
2023/06/01 03:50:36;;;;;;;8.27;3.42;;;;;;;-146.25;100.00;52157.34;2071446;28;20042;-64
2023/06/01 03:51:41;;;;;;;11.18;3.95;;;;;;;-146.25;100.00;52189.78;2071196;28;20038;-64
2023/06/01 03:52:44;;;;;;;11.32;3.30;;;;;;;-146.25;100.00;52201.94;2063694;28;20221;-64
2023/06/01 03:53:47;;;;;;;8.00;3.17;;;;;;;-146.25;100.00;52232.34;2071500;28;20897;-64
2023/06/01 03:54:51;;;;;;;8.85;3.10;;;;;;;-146.25;100.00;52153.28;2088646;28;20046;-64
2023/06/01 03:56:13;;;;;;;9.15;3.38;;;;;;;-146.25;100.00;52153.28;2084704;28;20053;-64
2023/06/01 03:57:16;;;;;;;9.80;3.35;;;;;;;-146.25;100.00;52163.41;2080282;28;20042;-64
2023/06/01 03:58:19;;;;;;;7.80;3.25;;;;;;;-146.25;100.00;52179.63;2079526;28;32973;-64
2023/06/01 03:59:21;;;;;;;13.98;3.78;;;;;;;-146.25;100.00;52153.28;2079403;28;20938;-64
2023/06/01 04:00:23;;;;;;;7.82;3.40;;;;;;;-146.25;100.00;52169.50;2071247;28;20854;-64
2023/06/01 04:01:28;;;;;;;9.27;3.80;;;;;;;-146.25;100.00;52157.34;2078498;28;42334;-65
2023/06/01 04:02:30;;;;;;;9.90;3.70;;;;;;;-146.25;100.00;52187.75;2079738;28;20046;-64
2023/06/01 04:03:33;;;;;;;13.35;3.72;;;;;;;-146.25;100.00;52137.06;2062891;28;20617;-65
2023/06/01 04:04:35;;;;;;;13.25;3.90;;;;;;;-146.25;100.00;52165.44;2063193;28;29375;-64
2023/06/01 04:05:40;;;;;;;13.48;3.90;;;;;;;-146.25;100.00;52193.81;2079675;28;20894;-64
2023/06/01 04:06:45;;;;;;;8.65;3.85;;;;;;;-146.25;100.00;52157.34;2079047;28;20115;-64
2023/06/01 04:07:50;;;;;;;10.60;3.80;;;;;;;-146.25;100.00;52181.66;2071986;28;21041;-64
2023/06/01 04:08:57;;;;;;;10.50;3.88;;;;;;;-146.25;100.00;52183.69;2071337;28;20193;-64
2023/06/01 04:10:00;;;;;;;9.35;3.70;;;;;;;-146.25;100.00;52181.66;2071998;28;20042;-64
2023/06/01 04:11:03;;;;;;;11.10;3.38;;;;;;;-146.25;100.00;52165.44;2071285;28;20074;-64
2023/06/01 04:12:06;;;;;;;9.07;3.65;;;;;;;-146.25;100.00;52175.56;2070989;28;20160;-65
2023/06/01 04:13:08;;;;;;;7.20;3.30;;;;;;;-146.25;100.00;52177.59;2079568;28;20046;-64
2023/06/01 04:14:10;;;;;;;8.55;3.70;;;;;;;-146.25;100.00;52149.22;2079268;28;20124;-64
2023/06/01 04:15:16;;;;;;;10.57;4.00;;;;;;;-146.25;100.00;52161.38;2071434;28;20051;-63
2023/06/01 04:16:18;;;;;;;11.55;3.80;;;;;;;-146.25;100.00;52155.31;2078899;28;20877;-64
2023/06/01 04:17:20;;;;;;;9.98;4.45;;;;;;;-146.25;100.00;52185.72;2063050;28;20055;-64
2023/06/01 04:18:22;;;;;;;9.13;3.88;;;;;;;-146.25;100.00;52189.78;2062848;28;20093;-64
2023/06/01 04:19:29;;;;;;;8.75;3.97;;;;;;;-146.25;100.00;52149.22;2072091;28;20126;-64
2023/06/01 04:20:37;;;;;;;11.00;4.28;;;;;;;-146.25;100.00;52171.53;2071892;28;21242;-63
2023/06/01 04:21:40;;;;;;;13.60;4.57;;;;;;;-146.25;100.00;52181.66;2071162;28;20969;-63
2023/06/01 04:22:43;;;;;;;8.80;3.95;;;;;;;-146.25;100.00;52193.81;2070942;28;20914;-64
2023/06/01 04:23:45;;;;;;;10.70;4.35;;;;;;;-146.25;100.00;52189.78;2079483;28;20034;-64
2023/06/01 04:24:48;;;;;;;10.98;4.32;;;;;;;-146.25;100.00;52175.56;2079326;28;20046;-63
2023/06/01 04:25:53;;;;;;;9.50;3.88;;;;;;;-146.25;100.00;52167.47;2079073;28;20802;-64
2023/06/01 04:26:56;;;;;;;14.77;4.55;;;;;;;-146.25;100.00;52147.19;2087263;28;20892;-64
2023/06/01 04:27:58;;;;;;;9.90;4.13;;;;;;;-146.25;100.00;52181.66;2070819;28;20055;-64
2023/06/01 04:29:11;;;;;;;12.73;4.05;;;;;;;-146.25;100.00;52177.59;2064144;28;20092;-64
2023/06/01 04:30:16;;;;;;;8.82;3.88;;;;;;;-146.25;100.00;52173.56;2080378;28;20284;-63
2023/06/01 04:31:20;;;;;;;10.40;4.28;;;;;;;-146.25;100.00;52122.88;2077748;28;20038;-63
2023/06/01 04:32:23;;;;;;;9.75;4.18;;;;;;;-146.25;100.00;52159.34;2063030;28;20039;-64
2023/06/01 04:33:27;;;;;;;9.38;4.63;;;;;;;-146.25;100.00;52153.28;2070722;28;20043;-64
2023/06/01 04:34:29;;;;;;;11.23;4.50;;;;;;;-146.25;100.00;52173.56;2071281;28;20061;-64
2023/06/01 04:35:32;;;;;;;9.32;3.92;;;;;;;-146.25;100.00;52155.31;2070608;28;20093;-64
2023/06/01 04:36:38;;;;;;;14.07;4.63;;;;;;;-146.25;100.00;52169.50;2071415;28;20787;-64
2023/06/01 04:37:42;;;;;;;9.13;4.45;;;;;;;-146.25;100.00;52175.56;2072658;28;20187;-64
2023/06/01 04:38:50;;;;;;;11.70;4.43;;;;;;;-146.25;100.00;52163.41;2072806;28;20112;-64
2023/06/01 04:39:52;;;;;;;12.15;4.70;;;;;;;-146.25;100.00;52155.31;2072645;28;20046;-64
2023/06/01 04:40:55;;;;;;;11.38;4.60;;;;;;;-146.25;100.00;52216.13;2080628;28;20057;-63
2023/06/01 04:41:57;;;;;;;9.65;4.85;;;;;;;-146.25;100.00;52177.59;2088309;28;20053;-64
2023/06/01 04:43:02;;;;;;;9.82;4.35;;;;;;;-146.25;100.00;52195.84;2088897;28;20041;-63
2023/06/01 04:44:07;;;;;;;11.15;4.80;;;;;;;-146.25;100.00;52191.81;2072869;28;20049;-64
2023/06/01 04:45:13;;;;;;;10.65;4.20;;;;;;;-146.25;100.00;52165.44;2072350;28;29182;-64
2023/06/01 04:46:15;;;;;;;11.85;4.32;;;;;;;-146.25;100.00;52141.13;2081017;28;20184;-63
2023/06/01 04:47:20;;;;;;;8.85;3.55;;;;;;;-146.25;100.00;52185.72;2080387;28;20156;-64
2023/06/01 04:48:31;;;;;;;10.50;3.90;;;;;;;-146.25;100.00;52151.25;2073691;28;20081;-63
2023/06/01 04:49:36;;;;;;;8.95;3.95;;;;;;;-146.25;100.00;52161.38;2081611;28;20867;-63
2023/06/01 04:50:40;;;;;;;6.68;3.63;;;;;;;-146.25;100.00;52175.56;2088854;28;20815;-64
2023/06/01 04:51:46;;;;;;;11.02;4.10;;;;;;;-146.25;100.00;52177.59;2088573;28;20131;-64
2023/06/01 04:52:49;;;;;;;12.27;4.00;;;;;;;-146.25;100.00;52157.34;2080652;28;29658;-64
2023/06/01 04:53:53;;;;;;;8.45;4.05;;;;;;;-146.25;100.00;52181.66;2088722;28;20181;-63
2023/06/01 04:54:55;;;;;;;7.35;3.50;;;;;;;-146.25;100.00;52167.47;2072204;28;25007;-64
2023/06/01 04:55:57;;;;;;;10.35;4.05;;;;;;;-146.25;100.00;52201.94;2071893;28;34044;-64
2023/06/01 04:57:00;;;;;;;7.68;3.80;;;;;;;-146.25;100.00;52175.56;2080666;28;21318;-64